Time;durP1;ratioP1;P1;durP2;ratioP2;P2;SDS_P1;SDS_P2;PMS_P1;PMS_P2;Temp;Humidity;BMP_temperature;BMP_pressure;BME280_temperature;BME280_humidity;BME280_pressure;Samples;Min_cycle;Max_cycle;Signal;HPM_P1;HPM_P2
2022/06/02 00:50:56;;;;;;;10.02;1.92;;;;;;;11.09;100.00;101002.78;4935219;24;20813;-90
2022/06/02 00:53:40;;;;;;;8.27;2.22;;;;;;;9.96;100.00;100846.69;4790667;30;20039;-91
2022/06/02 01:08:20;;;;;;;6.05;1.65;;;;;;;9.99;100.00;100845.47;5468320;23;20028;31
2022/06/02 01:11:05;;;;;;;6.80;2.00;;;;;;;11.09;100.00;101003.59;4846492;29;20034;-89
2022/06/02 01:14:00;;;;;;;8.85;2.22;;;;;;;10.07;100.00;100842.66;4847908;29;20063;-89
2022/06/02 01:16:48;;;;;;;8.93;2.20;;;;;;;11.08;100.00;101017.28;4849086;29;20018;-90
2022/06/02 01:19:51;;;;;;;4.80;1.95;;;;;;;11.05;100.00;101008.56;4848378;29;20101;-89
2022/06/02 01:22:49;;;;;;;5.93;2.17;;;;;;;10.42;100.00;100910.81;4848526;29;20051;-90
2022/06/02 01:25:39;;;;;;;6.97;1.92;;;;;;;11.02;100.00;101000.03;4832985;29;20057;-90
2022/06/02 01:28:30;;;;;;;7.22;1.95;;;;;;;10.02;100.00;100850.47;4848784;29;20547;-90
2022/06/02 01:36:25;;;;;;;12.68;1.75;;;;;;;10.00;100.00;100837.25;5582750;23;20087;-90
2022/06/02 01:39:09;;;;;;;10.40;2.28;;;;;;;11.07;100.00;100994.91;4916864;29;20056;-90
2022/06/02 01:44:22;;;;;;;7.95;2.10;;;;;;;10.24;100.00;100853.97;5498038;23;20053;-90
2022/06/02 02:18:00;;;;;;;9.93;2.42;;;;;;;10.07;100.00;100816.63;5038405;23;20065;-90
2022/06/02 02:26:01;;;;;;;3.95;2.40;;;;;;;10.63;100.00;100904.56;5257968;23;20060;-90
2022/06/02 02:34:25;;;;;;;7.78;2.63;;;;;;;10.93;100.00;100966.25;5016723;23;20112;-90
2022/06/02 02:37:06;;;;;;;6.28;2.25;;;;;;;9.82;100.00;100775.88;4885781;29;20084;-89
2022/06/02 02:39:54;;;;;;;9.30;2.75;;;;;;;10.31;100.00;100862.94;4885983;29;20165;-90
2022/06/02 02:42:31;;;;;;;4.82;2.20;;;;;;;10.66;100.00;100917.63;4902401;29;20021;-89
2022/06/02 02:47:42;;;;;;;7.35;2.78;;;;;;;10.85;100.00;100961.00;5015373;23;20040;-90
2022/06/02 02:50:25;;;;;;;4.28;2.15;;;;;;;9.78;100.00;100806.88;4922167;29;20072;-89
2022/06/02 02:53:03;;;;;;;5.10;2.40;;;;;;;10.88;100.00;100963.31;4907724;29;20028;-89
2022/06/02 02:55:39;;;;;;;7.50;2.28;;;;;;;10.92;100.00;100962.69;4908940;29;20109;-90
2022/06/02 02:58:24;;;;;;;5.57;2.60;;;;;;;10.92;100.00;100970.78;4925543;29;20069;-90
2022/06/02 03:01:09;;;;;;;7.32;2.40;;;;;;;10.26;100.00;100862.69;4909456;29;20019;-90
2022/06/02 03:03:39;;;;;;;5.25;2.45;;;;;;;9.88;100.00;100798.47;4925622;29;20032;-90
2022/06/02 03:06:18;;;;;;;6.90;2.55;;;;;;;10.87;100.00;100958.94;4925538;29;20013;-90
2022/06/02 03:08:54;;;;;;;4.85;2.08;;;;;;;10.86;100.00;100949.19;4909261;29;20032;-89
2022/06/02 03:11:50;;;;;;;3.25;1.95;;;;;;;9.85;100.00;100794.31;4925791;29;20052;-89
2022/06/02 03:14:39;;;;;;;;;;;;;;;10.84;100.00;100953.97;4925863;29;20024;-90
2022/06/02 03:17:14;;;;;;;6.72;2.00;;;;;;;10.84;100.00;100960.16;4906968;29;19927;-90
2022/06/02 03:19:49;;;;;;;4.18;2.15;;;;;;;10.20;100.00;100799.75;4890207;29;20021;-90
2022/06/02 03:22:48;;;;;;;5.82;2.10;;;;;;;11.19;100.00;100962.84;4890114;29;20088;-90
2022/06/02 03:25:25;;;;;;;8.18;2.00;;;;;;;10.50;100.00;100867.63;4891197;29;20013;-90
2022/06/02 03:28:05;;;;;;;5.50;2.10;;;;;;;10.43;100.00;100857.84;4888486;29;20053;-90
2022/06/02 03:31:05;;;;;;;6.50;1.95;;;;;;;10.43;100.00;100852.44;4954646;24;20105;-89
2022/06/02 03:34:11;;;;;;;3.80;2.00;;;;;;;11.78;100.00;100959.56;4883613;29;20046;-90
2022/06/02 03:36:43;;;;;;;4.25;1.75;;;;;;;13.15;100.00;100952.75;4887237;29;20024;-91
2022/06/02 03:39:17;;;;;;;3.70;2.13;;;;;;;12.93;100.00;100779.31;4885468;29;20056;-90
2022/06/02 03:42:15;;;;;;;3.40;1.90;;;;;;;13.79;100.00;100845.56;4882830;29;20041;-90
2022/06/02 03:44:59;;;;;;;5.97;1.80;;;;;;;14.04;100.00;100960.06;4981857;24;20053;-90
2022/06/02 03:47:46;;;;;;;5.07;1.67;;;;;;;13.74;100.00;100896.75;4870910;29;20056;-90
2022/06/02 03:50:49;;;;;;;5.60;1.70;;;;;;;14.69;100.00;100967.91;4870216;29;20022;-90
2022/06/02 03:53:31;;;;;;;8.13;1.90;;;;;;;13.33;100.00;100871.00;4886304;29;20012;-90
2022/06/02 03:56:05;;;;;;;4.53;1.55;;;;;;;13.71;100.00;100954.84;4870895;29;20026;-90
2022/06/02 03:58:44;;;;;;;4.10;1.40;;;;;;;12.63;100.00;100822.22;4870236;29;20033;-90
2022/06/02 04:41:53;;;;;;;4.38;1.20;;;;;;;15.74;100.00;100969.69;5159549;23;20036;-89
2022/06/02 04:44:43;;;;;;;3.53;1.10;;;;;;;15.70;100.00;100968.50;4905666;29;20019;-90
2022/06/02 05:59:45;;;;;;;1.98;0.85;;;;;;;16.37;100.00;100909.41;5722662;23;20064;-90
2022/06/02 07:19:24;;;;;;;3.00;1.40;;;;;;;15.85;100.00;100867.69;5938990;23;20130;31
2022/06/02 07:22:05;;;;;;;2.08;1.20;;;;;;;15.94;100.00;100888.00;4827325;29;20058;-91
2022/06/02 10:06:39;;;;;;;9.90;4.85;;;;;;;18.37;96.15;101047.75;2878123;23;20221;-90
2022/06/02 15:19:34;;;;;;;12.70;4.97;;;;;;;16.76;100.00;101200.59;760612;24;20239;-88
2022/06/02 15:28:15;;;;;;;12.32;5.28;;;;;;;15.54;100.00;101110.13;5441110;24;20084;-88
2022/06/02 15:30:55;;;;;;;13.60;5.88;;;;;;;16.04;100.00;101211.25;4876856;29;20041;-86
2022/06/02 15:34:12;;;;;;;13.50;6.00;;;;;;;16.01;100.00;101217.13;4849122;29;20093;-86
2022/06/02 15:36:56;;;;;;;11.02;5.70;;;;;;;15.76;100.00;101211.78;4861303;29;20038;-89
2022/06/02 15:39:30;;;;;;;12.48;5.40;;;;;;;15.67;100.00;101218.53;4866548;29;20025;-90
2022/06/02 16:08:09;;;;;;;14.18;6.03;;;;;;;15.53;100.00;101223.22;5924416;23;20020;31
2022/06/02 16:23:49;;;;;;;13.60;5.30;;;;;;;15.18;100.00;101202.00;5238479;23;20044;-91
2022/06/02 16:26:51;;;;;;;18.52;6.53;;;;;;;14.70;100.00;101121.25;4907190;29;20041;-89
2022/06/02 16:29:36;;;;;;;13.85;6.10;;;;;;;15.30;100.00;101234.66;4870132;29;20060;-92
2022/06/02 16:32:10;;;;;;;15.25;6.53;;;;;;;15.21;100.00;101219.69;4923044;29;20024;-90
2022/06/02 16:34:44;;;;;;;16.02;6.57;;;;;;;15.24;100.00;101243.66;4904080;29;20041;-90
2022/06/02 16:37:22;;;;;;;15.13;5.97;;;;;;;15.14;100.00;101240.59;4922644;29;20016;-90
2022/06/02 16:40:06;;;;;;;12.93;5.63;;;;;;;15.12;100.00;101242.69;5322216;23;20118;-90
2022/06/02 16:42:46;;;;;;;21.13;6.88;;;;;;;15.12;100.00;101238.09;5117657;23;20112;-88
2022/06/02 16:45:30;;;;;;;16.35;6.28;;;;;;;15.07;100.00;101234.41;4914312;29;20053;-88
2022/06/02 16:47:56;;;;;;;19.07;6.57;;;;;;;15.10;100.00;101240.22;4923388;24;20061;-88
2022/06/02 16:50:38;;;;;;;15.52;6.32;;;;;;;15.13;100.00;101244.34;4881377;29;20059;-88
2022/06/02 16:55:52;;;;;;;16.08;6.78;;;;;;;14.12;100.00;101109.66;5377316;23;20044;-91
2022/06/02 16:58:49;;;;;;;20.83;6.93;;;;;;;15.01;100.00;101239.63;4940958;23;20040;-90
2022/06/02 17:01:57;;;;;;;15.88;6.82;;;;;;;15.03;100.00;101253.81;4924175;29;20019;-89
2022/06/02 17:07:58;;;;;;;14.02;6.70;;;;;;;14.79;100.00;101255.38;4923591;23;20064;-90
2022/06/02 17:10:29;;;;;;;16.58;6.65;;;;;;;14.74;100.00;101259.78;4922345;29;20032;-91
2022/06/02 17:15:49;;;;;;;14.05;6.63;;;;;;;14.65;100.00;101258.38;5500887;23;20057;-85
2022/06/02 17:18:32;;;;;;;15.38;6.32;;;;;;;14.68;100.00;101252.53;4903585;29;20040;-89
2022/06/02 17:24:07;;;;;;;12.15;5.72;;;;;;;14.70;100.00;101261.25;4931254;24;20044;-89
2022/06/02 17:26:54;;;;;;;10.68;5.82;;;;;;;14.65;100.00;101263.78;4890773;29;20030;-89
2022/06/02 17:29:33;;;;;;;12.30;6.20;;;;;;;14.58;100.00;101255.69;4869202;29;20044;-88
2022/06/02 17:32:43;;;;;;;16.02;6.47;;;;;;;14.60;100.00;101255.47;4885681;29;20029;-91
2022/06/02 17:38:21;;;;;;;12.50;6.32;;;;;;;14.66;100.00;101262.72;4996095;24;20128;-89
2022/06/02 17:40:46;;;;;;;15.23;6.57;;;;;;;14.70;100.00;101255.84;4902169;29;20034;-88
2022/06/02 17:43:21;;;;;;;14.50;6.28;;;;;;;14.65;100.00;101252.97;4904323;29;20028;-89
2022/06/02 17:46:03;;;;;;;15.10;6.93;;;;;;;14.59;100.00;101256.53;4903374;29;20052;-89
2022/06/02 17:49:10;;;;;;;20.48;7.40;;;;;;;13.74;100.00;101138.31;4896265;29;20032;-90
2022/06/02 17:51:36;;;;;;;17.95;7.03;;;;;;;14.35;100.00;101234.50;5033172;23;20168;-91
2022/06/02 17:54:15;;;;;;;14.40;6.78;;;;;;;14.50;100.00;101264.91;4895597;29;20033;-88
2022/06/02 17:57:22;;;;;;;17.33;7.00;;;;;;;13.43;100.00;101097.59;4891847;29;20093;-89
2022/06/02 18:00:17;;;;;;;19.67;6.63;;;;;;;13.69;100.00;101137.28;4792330;30;20041;-89
2022/06/02 18:03:10;;;;;;;16.30;6.25;;;;;;;13.56;100.00;101128.16;4778217;30;20039;-91
2022/06/02 18:06:10;;;;;;;14.07;6.22;;;;;;;14.40;100.00;101259.03;4856819;29;20038;-91
2022/06/02 18:08:58;;;;;;;20.55;7.50;;;;;;;14.42;100.00;101259.66;4885699;29;20009;-91
2022/06/02 18:12:00;;;;;;;18.55;7.10;;;;;;;14.43;100.00;101255.91;5058050;23;20100;-91
2022/06/02 18:14:46;;;;;;;17.92;6.93;;;;;;;13.65;100.00;101136.06;4900819;29;20075;-91
2022/06/02 18:17:57;;;;;;;19.40;7.38;;;;;;;14.38;100.00;101260.31;4883519;29;20009;-91
2022/06/02 18:20:44;;;;;;;16.92;7.03;;;;;;;14.26;100.00;101257.44;4848629;29;20215;-90
2022/06/02 18:23:34;;;;;;;14.98;6.65;;;;;;;13.33;100.00;101119.66;4879450;29;20041;-90
2022/06/02 19:00:04;;;;;;;17.73;6.72;;;;;;;14.12;100.00;101272.03;5588997;23;20482;-90
2022/06/02 19:13:47;;;;;;;17.17;6.70;;;;;;;14.05;100.00;101269.34;4883189;29;20065;-88
2022/06/02 19:16:37;;;;;;;18.15;6.10;;;;;;;14.03;100.00;101277.66;4862045;29;20068;-83
2022/06/02 19:34:40;;;;;;;16.08;6.85;;;;;;;13.02;100.00;101137.31;4880854;29;20045;-90
2022/06/02 19:37:36;;;;;;;16.50;6.82;;;;;;;13.57;100.00;101218.19;4861028;29;20060;-89
2022/06/02 19:45:18;;;;;;;23.23;7.82;;;;;;;13.00;100.00;101146.66;4961654;23;20049;-91
2022/06/02 19:48:20;;;;;;;17.75;6.78;;;;;;;12.92;100.00;101134.19;4903838;29;20017;-90
2022/06/02 19:51:03;;;;;;;19.13;7.43;;;;;;;13.30;100.00;101212.78;4884938;29;20057;-90
2022/06/02 19:53:33;;;;;;;16.55;7.28;;;;;;;13.86;100.00;101287.25;4882526;29;20039;-91
2022/06/02 19:56:14;;;;;;;17.77;6.32;;;;;;;13.85;100.00;101288.31;4882357;29;20058;-90
2022/06/02 19:59:07;;;;;;;16.70;6.65;;;;;;;13.84;100.00;101292.03;4876926;29;20029;-89
2022/06/02 20:01:36;;;;;;;19.02;7.03;;;;;;;12.93;100.00;101155.56;4880178;29;20089;-91
2022/06/02 20:04:11;;;;;;;13.57;6.38;;;;;;;13.83;100.00;101295.78;4894568;29;20090;-90
2022/06/02 20:06:36;;;;;;;;;;;;;;;13.75;100.00;101293.31;4887225;29;20025;-89
2022/06/02 20:09:26;;;;;;;14.65;6.22;;;;;;;13.33;100.00;101225.88;4881801;29;20258;-89
2022/06/02 20:11:57;;;;;;;14.98;6.80;;;;;;;12.91;100.00;101165.78;4881715;29;20025;-89
2022/06/02 20:17:23;;;;;;;16.85;6.93;;;;;;;13.03;100.00;101184.88;4883362;29;20044;-92
2022/06/02 20:20:01;;;;;;;17.77;6.97;;;;;;;13.12;100.00;101191.75;4915245;23;20042;-87
2022/06/02 20:22:34;;;;;;;15.35;6.47;;;;;;;12.90;100.00;101155.16;4885918;29;20045;-92
2022/06/02 20:30:21;;;;;;;14.50;5.93;;;;;;;12.90;100.00;101158.69;4881599;29;20072;-91
2022/06/02 20:33:10;;;;;;;15.65;6.43;;;;;;;12.82;100.00;101144.56;4886717;29;20017;-91
2022/06/02 20:36:13;;;;;;;15.07;6.38;;;;;;;13.74;100.00;101288.91;4886887;29;20037;-89
2022/06/02 20:39:06;;;;;;;15.35;6.28;;;;;;;12.83;100.00;101148.91;4885942;29;20065;-91
2022/06/02 20:41:52;;;;;;;19.00;6.93;;;;;;;13.74;100.00;101281.66;4868543;29;20045;-89
2022/06/02 20:44:39;;;;;;;17.17;6.50;;;;;;;13.45;100.00;101252.31;4883035;29;20037;-89
2022/06/02 20:47:28;;;;;;;17.10;6.95;;;;;;;13.04;100.00;101175.72;4865784;29;20034;-83
2022/06/02 20:50:25;;;;;;;15.40;6.47;;;;;;;12.99;100.00;101180.94;4853972;29;20038;-87
2022/06/02 20:52:56;;;;;;;17.63;7.13;;;;;;;12.83;100.00;101148.91;4858489;29;20038;-87
2022/06/02 20:55:37;;;;;;;17.58;7.18;;;;;;;12.77;100.00;101141.63;4843399;29;20048;-85
2022/06/02 20:58:26;;;;;;;19.27;7.25;;;;;;;13.05;100.00;101190.94;4872795;29;20038;-88
2022/06/02 21:00:58;;;;;;;18.67;6.97;;;;;;;13.62;100.00;101278.72;4882332;29;20058;-90
2022/06/02 21:03:46;;;;;;;26.10;7.75;;;;;;;13.21;100.00;101224.84;4883885;29;20029;-90
2022/06/02 21:06:21;;;;;;;16.45;7.63;;;;;;;13.65;100.00;101285.59;4884713;29;20029;-91
2022/06/02 21:09:01;;;;;;;19.38;7.60;;;;;;;12.73;100.00;101134.97;4885305;29;20139;-91
2022/06/02 21:11:33;;;;;;;20.38;7.70;;;;;;;12.67;100.00;101125.81;4884261;29;20064;-91
2022/06/02 21:14:12;;;;;;;17.52;7.38;;;;;;;13.09;100.00;101197.56;4871782;29;20036;-91
2022/06/02 21:17:04;;;;;;;20.73;6.88;;;;;;;13.65;100.00;101285.59;4869485;29;20025;-93
2022/06/02 21:19:46;;;;;;;20.10;8.27;;;;;;;12.60;100.00;101125.00;5000369;23;20042;-91
2022/06/02 21:27:36;;;;;;;25.38;7.70;;;;;;;13.03;100.00;101195.69;4867666;29;20036;-93
2022/06/02 21:30:20;;;;;;;21.13;8.55;;;;;;;12.85;100.00;101165.75;4868618;29;20030;-93
2022/06/02 21:32:55;;;;;;;22.20;8.38;;;;;;;12.77;100.00;101138.94;4884273;29;20048;-92
2022/06/02 21:35:46;;;;;;;20.30;8.70;;;;;;;13.10;100.00;101195.69;4884073;29;20036;-93
2022/06/02 21:38:22;;;;;;;22.55;8.45;;;;;;;12.72;100.00;101134.16;4884066;29;20049;-92
2022/06/02 21:40:49;;;;;;;24.48;8.25;;;;;;;13.71;100.00;101287.47;4867932;29;20054;-92
2022/06/02 21:43:34;;;;;;;22.25;8.35;;;;;;;12.67;100.00;101123.97;4883979;29;20060;-92
2022/06/02 21:46:10;;;;;;;22.65;8.95;;;;;;;12.74;100.00;101131.25;4871607;29;20038;-93
2022/06/02 21:48:57;;;;;;;22.65;8.98;;;;;;;13.72;100.00;101281.03;4865812;29;20029;-92
2022/06/02 21:51:48;;;;;;;26.60;8.90;;;;;;;13.04;100.00;101181.13;4864799;29;20024;-93
2022/06/02 21:54:51;;;;;;;20.98;9.40;;;;;;;13.74;100.00;101284.38;4864836;29;20121;-90
2022/06/02 21:57:40;;;;;;;26.92;8.88;;;;;;;12.83;100.00;101138.13;4865053;29;20022;-93
2022/06/02 22:00:41;;;;;;;23.80;9.00;;;;;;;12.74;100.00;101125.84;4865582;29;20018;-92
2022/06/02 22:03:38;;;;;;;23.95;9.15;;;;;;;13.16;100.00;101190.31;4865872;29;20026;-92
2022/06/02 22:06:10;;;;;;;25.50;9.85;;;;;;;13.75;100.00;101285.19;4865380;29;20017;-93
2022/06/02 22:08:41;;;;;;;28.45;9.93;;;;;;;12.78;100.00;101130.66;4864636;29;20040;-92
2022/06/02 22:11:20;;;;;;;29.65;9.75;;;;;;;13.34;100.00;101216.75;4866074;29;20058;-92
2022/06/02 22:13:57;;;;;;;22.83;9.55;;;;;;;12.79;100.00;101123.38;4850121;29;20027;-91
2022/06/02 22:16:48;;;;;;;32.30;9.23;;;;;;;13.81;100.00;101281.66;4850942;29;20018;-92
2022/06/02 22:19:33;;;;;;;28.33;9.25;;;;;;;13.78;100.00;101284.78;4851946;29;20057;-92
2022/06/02 22:21:58;;;;;;;;;;;;;;;13.73;100.00;101288.09;4874919;24;20068;-91
2022/06/02 22:24:36;;;;;;;27.85;8.75;;;;;;;13.69;100.00;101280.63;4880583;29;19983;-88
2022/06/02 22:27:20;;;;;;;27.88;9.32;;;;;;;13.07;100.00;101178.03;4878527;29;20053;-88
2022/06/02 22:29:51;;;;;;;26.88;9.82;;;;;;;13.72;100.00;101291.00;4883140;29;20060;-91
2022/06/02 22:32:22;;;;;;;29.50;10.82;;;;;;;13.76;100.00;101284.97;4884057;29;20013;-93
2022/06/02 22:35:06;;;;;;;23.60;9.90;;;;;;;13.75;100.00;101285.19;4884312;29;20033;-92
2022/06/02 22:37:51;;;;;;;23.95;9.38;;;;;;;13.08;100.00;101182.41;4913946;23;20045;-91
2022/06/02 22:40:40;;;;;;;27.88;9.82;;;;;;;13.22;100.00;101194.06;4884083;29;20021;-91
2022/06/02 22:43:37;;;;;;;32.80;11.52;;;;;;;13.75;100.00;101283.31;4882436;29;20013;-91
2022/06/02 22:46:31;;;;;;;32.22;10.10;;;;;;;13.74;100.00;101284.38;4884203;29;20040;-90
2022/06/02 22:49:23;;;;;;;31.27;10.88;;;;;;;12.91;100.00;101164.91;4884869;29;20085;-92
2022/06/02 22:51:58;;;;;;;29.20;10.63;;;;;;;12.80;100.00;101133.94;4868191;29;20029;-92
2022/06/02 22:54:30;;;;;;;28.63;10.38;;;;;;;13.77;100.00;101280.38;4883330;29;20029;-92
2022/06/02 22:57:20;;;;;;;33.45;11.35;;;;;;;12.84;100.00;101131.66;4867572;29;20030;-91
2022/06/02 23:00:05;;;;;;;32.63;10.93;;;;;;;13.77;100.00;101278.50;4867867;29;20025;-91
2022/06/02 23:02:57;;;;;;;34.72;11.10;;;;;;;12.95;100.00;101152.69;4867566;29;20073;-91
2022/06/02 23:05:44;;;;;;;34.83;11.57;;;;;;;12.89;100.00;101145.41;4867575;29;20033;-92
2022/06/02 23:08:21;;;;;;;34.20;11.20;;;;;;;12.88;100.00;101141.00;4867464;29;20029;-92
2022/06/02 23:10:56;;;;;;;31.20;10.65;;;;;;;13.04;100.00;101175.72;4888127;29;20092;-91
2022/06/02 23:13:55;;;;;;;36.08;11.38;;;;;;;12.97;100.00;101158.69;4871562;29;20077;-92
2022/06/02 23:16:26;;;;;;;31.77;10.90;;;;;;;13.72;100.00;101277.50;4871251;29;20090;-91
2022/06/02 23:19:01;;;;;;;33.63;11.65;;;;;;;13.74;100.00;101278.09;4901655;29;20025;-92
2022/06/02 23:21:36;;;;;;;36.05;11.55;;;;;;;13.70;100.00;101285.78;4889372;29;20025;-91
2022/06/02 23:24:15;;;;;;;;;;;;;;;13.61;100.00;101278.94;4905567;29;20021;-91
2022/06/02 23:26:50;;;;;;;33.05;12.18;;;;;;;13.57;100.00;101280.38;4905197;29;19930;-92
2022/06/02 23:29:18;;;;;;;;;;;;;;;13.50;100.00;101276.84;4906221;29;20056;-92
2022/06/02 23:32:03;;;;;;;32.05;11.77;;;;;;;13.45;100.00;101290.16;4905507;29;19990;-91
2022/06/02 23:34:44;;;;;;;;;;;;;;;13.42;100.00;101287.88;4906105;29;20081;-91
2022/06/02 23:37:47;;;;;;;39.20;11.88;;;;;;;13.36;100.00;101292.22;4889692;29;19907;-92
2022/06/02 23:40:31;;;;;;;31.10;12.85;;;;;;;13.34;100.00;101294.28;4887919;29;20077;-92
2022/06/02 23:46:14;;;;;;;33.03;12.23;;;;;;;12.23;100.00;101141.50;4885804;29;20017;-90
2022/06/02 23:49:04;;;;;;;34.72;12.80;;;;;;;13.20;100.00;101297.97;4868905;29;20045;-87
2022/06/02 23:52:18;;;;;;;39.67;13.85;;;;;;;13.17;100.00;101305.44;4879307;29;20013;-91
2022/06/02 23:55:05;;;;;;;31.42;11.98;;;;;;;13.12;100.00;101297.13;4828468;29;20055;-91
2022/06/02 23:58:01;;;;;;;43.40;12.98;;;;;;;12.12;100.00;101143.91;4887013;29;20017;-91
